Flight Track Log - Related Links

Times and Time Zones

All times are in EDT time to prevent confusion due to time zone crossing. See the SWA3143 flight status page for this flight to view local times or setup timezone preferences in your user account.

Time Position Orientation Groundspeed Altitude Reporting Facility
EDT Latitude Longitude Course Direction KTS MPH feet Rate Location/Type
Sat 10:12:00 AM 42.9500 -87.9000 360° North 154 177 2,100  Level KMKE
Sat 10:12:24 AM 42.9667 -87.9000 360° North 156 180 3,300 2,123 Climbing KMKE
Sat 10:13:05 AM 42.9928 -87.9186 332° Northwest 200 230 4,400 1,806 Climbing Chicago Center
Sat 10:14:07 AM 43.0508 -87.9747 325° Northwest 248 285 6,400 3,854 Climbing Chicago Center
Sat 10:15:08 AM 43.1158 -88.0556 318° Northwest 262 302 12,300 4,390 Climbing Chicago Center
Sat 10:16:10 AM 43.1747 -88.1372 315° West 301 346 15,400 3,339 Climbing Chicago Center
Sat 10:17:12 AM 43.2014 -88.2661 286° West 345 397 19,200 3,561 Climbing Chicago Center
Sat 10:18:13 AM 43.2281 -88.4031 285° West 363 418 22,700 1,854 Climbing Chicago Center
Sat 10:19:15 AM 43.2547 -88.5436 285° West 373 429 23,000 1,113 Climbing Chicago Center
Sat 10:20:17 AM 43.2836 -88.6858 286° West 380 437 25,000 2,661 Climbing Chicago Center
Sat 10:21:19 AM 43.3133 -88.8294 286° West 387 445 28,500 2,419 Climbing Chicago Center
Sat 10:22:21 AM 43.3417 -88.9686 286° West 378 435 30,000 732 Climbing Chicago Center
Sat 10:23:22 AM 43.3897 -89.0986 297° West 387 445 30,000  Level Chicago Center
Sat 10:24:24 AM 43.4761 -89.2017 319° Northwest 407 468 30,000  Level Chicago Center
Sat 10:25:26 AM 43.5775 -89.3294 318° Northwest 410 472 30,000  Level Chicago Center
Sat 10:26:28 AM 43.6628 -89.4342 318° Northwest 410 472 30,000  Level Chicago Center
Sat 10:27:29 AM 43.7472 -89.5406 318° Northwest 411 473 30,000  Level Chicago Center
Sat 10:28:31 AM 43.8314 -89.6472 318° Northwest 411 473 30,000  Level Chicago Center
Sat 10:29:33 AM 43.9150 -89.7531 318° Northwest 409 471 30,000  Level Chicago Center
Sat 10:30:35 AM 43.9981 -89.8608 317° Northwest 409 471 30,000  Level Chicago Center
Sat 10:31:37 AM 44.0675 -89.9842 308° West 431 496 30,000  Level Chicago Center
Sat 10:32:38 AM 44.1286 -90.1508 297° West 408 470 30,000  Level Chicago Center
Sat 10:33:40 AM 44.1792 -90.2911 297° West 407 468 30,000  Level Chicago Center
Sat 10:34:42 AM 44.2275 -90.4236 297° West 408 470 30,000  Level Chicago Center
Sat 10:35:44 AM 44.2767 -90.5633 296° West 407 468 30,000  Level Chicago Center
Sat 10:36:46 AM 44.3267 -90.7036 297° West 407 468 30,000  Level Chicago Center
Sat 10:37:47 AM 44.3858 -90.8714 296° West 406 467 30,000  Level Chicago Center
Sat 10:38:49 AM 44.4342 -91.0097 296° West 403 464 30,000  Level Chicago Center
Sat 10:39:51 AM 44.4825 -91.1486 296° West 401 461 30,000  Level Chicago Center
Sat 10:40:53 AM 44.5308 -91.2867 296° West 400 460 30,000 -242 Level Chicago Center
Sat 10:41:55 AM 44.5789 -91.4247 296° West 398 458 29,500 -2,160 Descending Chicago Center
Sat 10:43:23 AM 44.6525 -91.6419 296° West 394 453 24,600 -3,101 Descending Minneapolis Center
Sat 10:44:24 AM 44.6969 -91.7731 296° West 384 442 21,800 -2,683 Descending Minneapolis Center
Sat 10:45:26 AM 44.7400 -91.8992 296° West 373 429 19,100 -2,634 Descending Minneapolis Center
Sat 10:46:27 AM 44.7831 -92.0217 296° West 355 409 16,400 -2,634 Descending Minneapolis Center
Sat 10:47:29 AM 44.8228 -92.1392 296° West 337 388 13,700 -2,371 Descending Minneapolis Center
Sat 10:48:31 AM 44.8486 -92.2831 284° West 329 379 11,500 -1,561 Descending Minneapolis Center
Sat 10:49:32 AM 44.8319 -92.4114 260° West 332 382 10,500 -976 Descending Minneapolis Center
Sat 10:50:34 AM 44.8175 -92.5169 259° West 280 322 9,500 -1,210 Descending Minneapolis Center
Sat 10:51:36 AM 44.8047 -92.6183 260° West 265 305 8,000 -1,220 Descending Minneapolis Center
Sat 10:52:37 AM 44.7908 -92.7175 259° West 260 299 7,000 -634 Descending Minneapolis Center
Sat 10:53:39 AM 44.7789 -92.8075 259° West 239 275 6,700 -871 Descending Minneapolis Center
Sat 10:54:41 AM 44.7675 -92.8911 259° West 222 255 5,200 -1,171 Descending Minneapolis Center
Sat 10:55:42 AM 44.7792 -92.9847 280° West 208 239 4,300 -919 Descending Minneapolis Center
Sat 10:56:45 AM 44.8058 -93.0456 302° West 185 213 3,300 -878 Descending Minneapolis Center
Sat 10:57:45 AM 44.8308 -93.1031 302° West 176 203 2,500 -787 Descending Minneapolis Center
Sat 10:58:47 AM 44.8511 -93.1497 302° West 142 163 1,700 -774 Descending Minneapolis Center
Sat 11:00:00 AM 44.8667 -93.2167 270° West  Level FlightAware Approximate
Sat 11:07:00 AM 44.8820 -93.2218 270° West  Level Estimated
Sat 11:08:00 AM 44.8820 -93.2218 270° West  Level Estimated

Login

Don't have an account? Register now (free) for customized features, flight alerts, and more!